createdAt,value
2019-04-01T00:02:03.157Z,61.50
2019-04-01T00:04:35.976Z,61.40
2019-04-01T00:07:11.433Z,61.10
2019-04-01T00:09:44.144Z,61.10
2019-04-01T00:12:21.002Z,61.00
2019-04-01T00:14:52.309Z,60.40
2019-04-01T00:17:22.697Z,60.60
2019-04-01T00:19:52.977Z,60.60
2019-04-01T00:22:23.605Z,60.70
2019-04-01T00:24:54.581Z,60.90
2019-04-01T00:27:23.941Z,60.50
2019-04-01T00:29:56.147Z,60.20
2019-04-01T00:32:27.434Z,60.80
2019-04-01T00:34:57.288Z,60.70
2019-04-01T00:37:28.068Z,60.60
2019-04-01T00:40:01.094Z,60.50
2019-04-01T00:42:34.342Z,60.70
2019-04-01T00:45:09.959Z,60.40
2019-04-01T00:47:39.867Z,60.70
2019-04-01T00:50:11.586Z,60.40
2019-04-01T00:52:40.743Z,60.60
2019-04-01T00:55:12.828Z,60.60
2019-04-01T00:57:43.220Z,61.00
2019-04-01T01:00:18.855Z,60.80
2019-04-01T01:02:48.159Z,60.90
2019-04-01T01:05:17.392Z,61.10
2019-04-01T01:07:48.512Z,60.90
2019-04-01T01:10:22.144Z,61.10
2019-04-01T01:12:58.285Z,61.20
2019-04-01T01:15:28.523Z,61.00
2019-04-01T01:17:57.666Z,60.90
2019-04-01T01:20:30.838Z,61.00
2019-04-01T01:23:08.089Z,61.00
2019-04-01T01:25:40.765Z,61.50
2019-04-01T01:28:10.033Z,61.60
2019-04-01T01:30:45.015Z,61.40
2019-04-01T01:33:14.321Z,61.80
2019-04-01T01:35:43.582Z,61.30
2019-04-01T01:38:16.199Z,61.40
2019-04-01T01:40:46.313Z,61.60
2019-04-01T01:43:15.648Z,61.70
2019-04-01T01:45:48.973Z,61.70
2019-04-01T01:48:19.750Z,61.90
2019-04-01T01:50:51.735Z,62.50
2019-04-01T01:53:22.939Z,62.80
2019-04-01T01:55:54.606Z,62.60
2019-04-01T01:58:27.419Z,63.00
2019-04-01T02:00:57.566Z,63.10
2019-04-01T02:03:26.755Z,63.20
2019-04-01T02:05:55.933Z,63.30
2019-04-01T02:08:25.117Z,63.10
2019-04-01T02:11:01.470Z,62.90
2019-04-01T02:13:30.682Z,62.60
2019-04-01T02:16:00.838Z,62.40
2019-04-01T02:18:30.137Z,62.10
2019-04-01T02:21:00.434Z,61.10
2019-04-01T02:23:30.530Z,60.60
2019-04-01T02:26:02.136Z,61.20
2019-04-01T02:28:31.448Z,61.60
2019-04-01T02:31:01.931Z,61.70
2019-04-01T02:33:31.228Z,61.80
2019-04-01T02:36:00.522Z,62.00
2019-04-01T02:38:30.364Z,61.70
2019-04-01T02:41:02.200Z,62.00
2019-04-01T02:43:31.554Z,61.90
2019-04-01T02:46:04.630Z,61.50
2019-04-01T02:48:33.202Z,61.60
2019-04-01T02:51:02.479Z,61.30
2019-04-01T02:53:33.104Z,61.60
2019-04-01T02:56:02.418Z,61.60
2019-04-01T02:58:31.706Z,61.90
2019-04-01T03:01:01.856Z,61.80
2019-04-01T03:03:31.742Z,62.00
2019-04-01T03:06:04.167Z,62.20
2019-04-01T03:08:33.421Z,61.80
2019-04-01T03:11:10.032Z,62.00
2019-04-01T03:13:38.624Z,62.20
2019-04-01T03:16:08.996Z,62.60
2019-04-01T03:18:38.229Z,62.60
2019-04-01T03:21:07.494Z,62.30
2019-04-01T03:23:37.061Z,62.10
2019-04-01T03:26:08.330Z,62.00
2019-04-01T03:28:38.340Z,62.50
2019-04-01T03:31:13.815Z,62.60
2019-04-01T03:33:44.998Z,62.50
2019-04-01T03:36:15.282Z,62.70
2019-04-01T03:38:44.480Z,62.80
2019-04-01T03:41:16.534Z,62.80
2019-04-01T03:43:45.897Z,62.80
2019-04-01T03:46:21.096Z,63.10
2019-04-01T03:48:51.641Z,62.80
2019-04-01T03:51:20.917Z,62.40
2019-04-01T03:53:50.200Z,62.90
2019-04-01T03:56:19.431Z,63.30
2019-04-01T03:58:51.937Z,63.60
2019-04-01T04:01:22.127Z,63.60
2019-04-01T04:03:51.527Z,63.40
2019-04-01T04:06:21.810Z,63.20
2019-04-01T04:08:53.955Z,63.50
2019-04-01T04:11:24.585Z,63.40
2019-04-01T04:13:55.447Z,62.70
2019-04-01T04:16:30.404Z,63.10
2019-04-01T04:18:59.689Z,63.70
2019-04-01T04:21:30.598Z,64.00
2019-04-01T04:24:06.099Z,64.30
2019-04-01T04:26:36.733Z,64.40
2019-04-01T04:29:06.099Z,64.70
2019-04-01T04:31:36.361Z,64.70
2019-04-01T04:34:05.771Z,64.70
2019-04-01T04:36:36.609Z,64.90
2019-04-01T04:39:06.256Z,65.10
2019-04-01T04:41:35.586Z,64.80
2019-04-01T04:44:07.362Z,64.70
2019-04-01T04:46:37.733Z,64.80
2019-04-01T04:49:08.627Z,64.60
2019-04-01T04:51:40.723Z,64.80
2019-04-01T04:54:14.657Z,64.80
2019-04-01T04:56:49.732Z,65.10
2019-04-01T04:59:26.995Z,65.40
2019-04-01T05:01:57.038Z,65.30
2019-04-01T05:04:29.908Z,66.20
2019-04-01T05:07:00.843Z,65.40
2019-04-01T05:09:36.544Z,65.10
2019-04-01T05:12:13.506Z,65.00
2019-04-01T05:14:48.357Z,64.90
2019-04-01T05:17:24.789Z,65.00
2019-04-01T05:19:54.829Z,64.50
2019-04-01T05:22:25.428Z,64.60
2019-04-01T05:24:58.338Z,64.40
2019-04-01T05:27:29.922Z,64.40
2019-04-01T05:30:04.988Z,64.50
2019-04-01T05:32:39.960Z,64.90
2019-04-01T05:35:13.101Z,65.40
2019-04-01T05:37:44.020Z,65.60
2019-04-01T05:40:18.267Z,65.70
2019-04-01T05:42:50.074Z,65.70
2019-04-01T05:45:22.400Z,65.10
2019-04-01T05:47:54.399Z,64.70
2019-04-01T05:50:25.531Z,64.60
2019-04-01T05:52:54.878Z,64.80
2019-04-01T05:55:26.756Z,64.90
2019-04-01T05:57:57.000Z,65.10
2019-04-01T06:00:33.095Z,65.20
2019-04-01T06:03:02.339Z,65.30
2019-04-01T06:05:38.110Z,65.10
2019-04-01T06:08:07.439Z,64.30
2019-04-01T06:10:36.960Z,64.00
2019-04-01T06:13:06.385Z,64.90
2019-04-01T06:15:38.034Z,65.30
2019-04-01T06:18:09.407Z,65.60
2019-04-01T06:20:40.053Z,65.70
2019-04-01T06:23:10.903Z,65.50
2019-04-01T06:25:43.031Z,65.30
2019-04-01T06:28:20.902Z,64.80
2019-04-01T06:30:50.258Z,64.70
2019-04-01T06:33:21.711Z,65.30
2019-04-01T06:35:53.022Z,65.40
2019-04-01T06:38:29.528Z,65.20
2019-04-01T06:41:00.466Z,64.80
2019-04-01T06:43:38.589Z,64.60
2019-04-01T06:46:10.453Z,64.70
2019-04-01T06:48:39.705Z,64.70
2019-04-01T06:51:09.515Z,64.60
2019-04-01T06:53:38.855Z,64.90
2019-04-01T06:56:11.737Z,64.70
2019-04-01T06:58:42.688Z,64.70
2019-04-01T07:01:12.619Z,64.50
2019-04-01T07:03:43.857Z,64.70
2019-04-01T07:06:13.206Z,64.50
2019-04-01T07:08:42.785Z,64.60
2019-04-01T07:11:13.012Z,63.70
2019-04-01T07:13:42.307Z,63.80
2019-04-01T07:16:15.760Z,63.90
2019-04-01T07:18:44.155Z,63.60
2019-04-01T07:21:16.730Z,63.00
2019-04-01T07:23:47.934Z,62.80
2019-04-01T07:26:21.228Z,62.40
2019-04-01T07:28:55.148Z,62.50
2019-04-01T07:31:24.151Z,62.50
2019-04-01T07:33:54.186Z,62.00
2019-04-01T07:36:23.552Z,61.60
2019-04-01T07:38:54.870Z,61.40
2019-04-01T07:41:36.228Z,61.80
2019-04-01T07:44:05.425Z,62.10
2019-04-01T07:46:39.980Z,62.00
2019-04-01T07:49:12.425Z,61.30
2019-04-01T07:51:45.731Z,61.40
2019-04-01T07:54:18.720Z,61.40
2019-04-01T07:56:53.161Z,61.00
2019-04-01T07:59:22.998Z,60.90
2019-04-01T08:01:53.627Z,60.80
2019-04-01T08:04:24.155Z,60.20
2019-04-01T08:06:54.690Z,59.80
2019-04-01T08:09:26.755Z,59.80
2019-04-01T08:11:55.944Z,59.60
2019-04-01T08:14:29.118Z,59.70
2019-04-01T08:16:59.517Z,59.40
2019-04-01T08:19:30.690Z,59.30
2019-04-01T08:22:00.938Z,58.90
2019-04-01T08:24:32.841Z,59.20
2019-04-01T08:27:02.098Z,58.80
2019-04-01T08:29:31.613Z,58.20
2019-04-01T08:32:05.214Z,59.10
2019-04-01T08:34:36.186Z,59.20
2019-04-01T08:37:08.008Z,59.20
2019-04-01T08:39:38.893Z,59.10
2019-04-01T08:42:08.147Z,58.60
2019-04-01T08:44:38.334Z,58.10
2019-04-01T08:47:08.758Z,57.80
2019-04-01T08:49:37.991Z,57.60
2019-04-01T08:52:07.279Z,57.10
2019-04-01T08:54:37.491Z,57.10
2019-04-01T08:57:07.869Z,57.10
2019-04-01T08:59:38.034Z,57.00
2019-04-01T09:02:17.785Z,56.70
2019-04-01T09:04:38.367Z,56.20
2019-04-01T09:07:08.157Z,56.30
2019-04-01T09:09:38.590Z,56.10
2019-04-01T09:12:09.975Z,55.90
2019-04-01T09:14:42.848Z,55.60
2019-04-01T09:17:14.127Z,55.70
2019-04-01T09:19:47.650Z,56.20
2019-04-01T09:22:20.719Z,56.20
2019-04-01T09:24:52.986Z,56.30
2019-04-01T09:27:24.424Z,55.60
2019-04-01T09:29:54.104Z,55.50
2019-04-01T09:32:24.124Z,55.80
2019-04-01T09:34:54.211Z,55.70
2019-04-01T09:37:25.162Z,55.50
2019-04-01T09:39:59.408Z,55.20
2019-04-01T09:42:28.597Z,54.90
2019-04-01T09:44:58.852Z,54.90
2019-04-01T09:47:28.386Z,54.40
2019-04-01T09:49:59.840Z,54.30
2019-04-01T09:52:29.098Z,54.30
2019-04-01T09:54:59.214Z,54.00
2019-04-01T09:57:30.796Z,53.70
2019-04-01T10:00:01.052Z,53.70
2019-04-01T10:02:33.064Z,53.40
2019-04-01T10:05:03.646Z,52.90
2019-04-01T10:07:36.257Z,52.20
2019-04-01T10:10:06.790Z,52.80
2019-04-01T10:12:37.118Z,52.60
2019-04-01T10:15:08.758Z,52.50
2019-04-01T10:17:39.159Z,53.00
2019-04-01T10:20:10.855Z,53.00
2019-04-01T10:22:41.260Z,53.00
2019-04-01T10:25:10.512Z,52.40
2019-04-01T10:27:43.498Z,51.90
2019-04-01T10:30:15.271Z,51.60
2019-04-01T10:32:57.781Z,51.70
2019-04-01T10:41:23.709Z,51.30
2019-04-01T10:43:53.049Z,50.70
2019-04-01T10:46:23.431Z,50.40
2019-04-01T10:48:52.718Z,50.20
2019-04-01T10:51:23.288Z,50.20
2019-04-01T10:53:55.296Z,50.00
2019-04-01T10:56:24.727Z,49.60
2019-04-01T10:58:54.074Z,50.00
2019-04-01T11:01:23.305Z,49.90
2019-04-01T11:03:52.694Z,49.90
2019-04-01T11:06:23.039Z,49.40
2019-04-01T11:08:52.363Z,49.80
2019-04-01T11:11:21.559Z,48.40
2019-04-01T11:13:51.965Z,47.00
2019-04-01T11:16:21.649Z,45.10
2019-04-01T11:18:50.874Z,42.90
2019-04-01T11:21:20.162Z,40.50
2019-04-01T11:23:49.333Z,39.10
2019-04-01T11:26:18.587Z,37.30
2019-04-01T11:28:50.787Z,36.00
2019-04-01T11:31:19.983Z,35.80
2019-04-01T11:33:49.290Z,35.40
2019-04-01T11:36:18.598Z,34.80
2019-04-01T11:38:49.659Z,34.50
2019-04-01T11:41:19.069Z,34.40
2019-04-01T11:43:49.958Z,34.50
2019-04-01T11:46:19.279Z,33.70
2019-04-01T11:48:48.505Z,33.20
2019-04-01T11:51:31.830Z,32.70
2019-04-01T11:53:48.669Z,31.90
2019-04-01T11:56:19.889Z,31.50
2019-04-01T11:58:49.879Z,31.00
2019-04-01T12:01:19.088Z,30.20
2019-04-01T12:03:54.416Z,29.50
2019-04-01T12:06:24.832Z,28.90
2019-04-01T12:08:54.072Z,29.50
2019-04-01T12:11:23.358Z,31.00
2019-04-01T12:13:52.626Z,31.50
2019-04-01T12:16:23.886Z,31.10
2019-04-01T12:18:55.198Z,31.10
2019-04-01T12:21:24.489Z,30.40
2019-04-01T12:23:56.690Z,30.00
2019-04-01T12:26:26.544Z,30.80
2019-04-01T12:28:56.748Z,31.00
2019-04-01T12:31:26.044Z,29.90
2019-04-01T12:33:55.321Z,29.20
2019-04-01T12:36:24.572Z,29.50
2019-04-01T12:38:53.996Z,29.60
2019-04-01T12:41:23.244Z,29.40
2019-04-01T12:43:52.510Z,28.90
2019-04-01T12:46:23.823Z,29.00
2019-04-01T12:51:58.483Z,29.20
2019-04-01T12:54:29.322Z,29.80
2019-04-01T12:56:58.577Z,29.30
2019-04-01T12:59:28.857Z,29.20
2019-04-01T13:01:58.137Z,28.80
2019-04-01T13:04:36.111Z,28.60
2019-04-01T13:07:05.549Z,29.00
2019-04-01T13:09:36.028Z,28.80
2019-04-01T13:12:05.310Z,28.60
2019-04-01T13:14:34.566Z,29.60
2019-04-01T13:17:03.767Z,29.60
2019-04-01T13:19:33.011Z,29.30
2019-04-01T13:22:02.222Z,29.10
2019-04-01T13:24:34.478Z,29.00
2019-04-01T13:27:09.002Z,28.60
2019-04-01T13:29:37.394Z,29.00
2019-04-01T13:32:06.662Z,29.20
2019-04-01T13:34:35.893Z,29.50
2019-04-01T13:37:05.281Z,30.00
2019-04-01T13:39:34.538Z,30.00
2019-04-01T13:42:03.756Z,29.60
2019-04-01T13:44:37.077Z,28.70
2019-04-01T13:47:04.054Z,28.70
2019-04-01T13:49:34.587Z,28.40
2019-04-01T13:52:03.970Z,28.20
2019-04-01T13:54:34.124Z,28.50
2019-04-01T13:57:03.387Z,28.90
2019-04-01T13:59:32.663Z,29.40
2019-04-01T14:02:07.787Z,30.00
2019-04-01T14:04:37.047Z,31.40
2019-04-01T14:07:09.496Z,32.60
2019-04-01T14:09:38.745Z,32.50
2019-04-01T14:12:07.988Z,32.20
2019-04-01T14:14:37.330Z,33.40
2019-04-01T14:17:06.596Z,33.80
2019-04-01T14:19:36.833Z,34.80
2019-04-01T14:22:09.686Z,35.40
2019-04-01T14:24:42.524Z,35.80
2019-04-01T14:27:10.823Z,36.40
2019-04-01T14:29:42.104Z,36.70
2019-04-01T14:32:11.369Z,36.80
2019-04-01T14:34:40.706Z,37.00
2019-04-01T14:37:10.203Z,37.40
2019-04-01T14:39:44.649Z,38.20
2019-04-01T14:42:14.540Z,36.90
2019-04-01T14:44:47.091Z,36.60
2019-04-01T14:47:17.501Z,37.20
2019-04-01T14:49:48.736Z,37.00
2019-04-01T14:52:31.574Z,37.30
2019-04-01T14:54:54.845Z,37.60
2019-04-01T14:57:23.147Z,37.90
2019-04-01T14:59:55.915Z,37.60
2019-04-01T15:02:23.325Z,37.40
2019-04-01T15:04:52.613Z,37.40
2019-04-01T15:07:24.804Z,37.30
2019-04-01T15:09:54.075Z,36.80
2019-04-01T15:12:23.334Z,36.50
2019-04-01T15:14:52.543Z,36.20
2019-04-01T15:17:21.859Z,36.30
2019-04-01T15:19:51.100Z,37.40
2019-04-01T15:22:20.290Z,38.00
2019-04-01T15:24:49.566Z,38.10
2019-04-01T15:27:22.329Z,38.30
2019-04-01T15:29:49.697Z,38.50
2019-04-01T15:32:20.041Z,38.60
2019-04-01T15:34:52.098Z,38.10
2019-04-01T15:37:22.366Z,36.90
2019-04-01T15:39:52.375Z,36.60
2019-04-01T15:42:27.320Z,36.40
2019-04-01T15:44:56.581Z,36.60
2019-04-01T15:47:25.777Z,36.90
2019-04-01T15:49:55.011Z,37.20
2019-04-01T15:52:24.209Z,37.10
2019-04-01T15:54:53.917Z,36.90
2019-04-01T15:57:23.213Z,36.80
2019-04-01T15:59:52.504Z,36.70
2019-04-01T16:02:22.777Z,36.50
2019-04-01T16:04:52.030Z,36.60
2019-04-01T16:07:24.876Z,36.50
2019-04-01T16:09:54.324Z,35.90
2019-04-01T16:12:24.673Z,36.20
2019-04-01T16:14:53.942Z,36.60
2019-04-01T16:17:23.203Z,36.60
2019-04-01T16:19:52.477Z,37.00
2019-04-01T16:22:22.061Z,35.90
2019-04-01T16:24:51.584Z,36.30
2019-04-01T16:27:20.855Z,37.00
2019-04-01T16:29:50.090Z,37.70
2019-04-01T16:32:19.282Z,38.00
2019-04-01T16:34:48.513Z,37.90
2019-04-01T16:37:17.738Z,38.20
2019-04-01T16:39:48.893Z,38.40
2019-04-01T16:42:19.469Z,38.40
2019-04-01T16:44:49.267Z,38.40
2019-04-01T16:47:21.407Z,38.40
2019-04-01T16:49:50.688Z,37.60
2019-04-01T16:52:19.942Z,37.50
2019-04-01T16:54:57.065Z,37.60
2019-04-01T16:57:26.775Z,38.10
2019-04-01T16:59:56.281Z,38.50
2019-04-01T17:02:26.355Z,38.60
2019-04-01T17:05:00.157Z,38.90
2019-04-01T17:07:27.783Z,38.90
2019-04-01T17:09:58.559Z,38.90
2019-04-01T17:12:28.183Z,38.70
2019-04-01T17:14:57.774Z,38.80
2019-04-01T17:17:27.909Z,38.80
2019-04-01T17:19:57.209Z,38.90
2019-04-01T17:22:26.447Z,39.10
2019-04-01T17:24:57.420Z,38.60
2019-04-01T17:27:27.085Z,38.80
2019-04-01T17:29:56.269Z,38.90
2019-04-01T17:32:25.743Z,38.80
2019-04-01T17:34:54.915Z,39.10
2019-04-01T17:37:24.179Z,39.10
2019-04-01T17:39:53.418Z,39.90
2019-04-01T17:42:22.723Z,39.00
2019-04-01T17:44:57.603Z,38.60
2019-04-01T17:47:27.409Z,38.70
2019-04-01T17:49:57.874Z,38.90
2019-04-01T17:52:32.225Z,39.50
2019-04-01T17:55:01.448Z,40.00
2019-04-01T17:57:31.938Z,40.00
2019-04-01T18:00:01.981Z,40.40
2019-04-01T18:02:31.375Z,40.90
2019-04-01T18:05:01.642Z,40.90
2019-04-01T18:07:36.742Z,41.10
2019-04-01T18:10:06.171Z,41.40
2019-04-01T18:12:35.388Z,41.30
2019-04-01T18:15:05.524Z,41.60
2019-04-01T18:17:34.879Z,41.90
2019-04-01T18:20:06.137Z,42.00
2019-04-01T18:22:36.408Z,42.00
2019-04-01T18:25:06.319Z,42.20
2019-04-01T18:27:35.766Z,42.20
2019-04-01T18:30:11.545Z,42.40
2019-04-01T18:32:40.820Z,43.10
2019-04-01T18:35:12.299Z,43.60
2019-04-01T18:37:42.464Z,43.70
2019-04-01T18:40:13.197Z,43.50
2019-04-01T18:42:42.365Z,42.90
2019-04-01T18:45:12.484Z,43.00
2019-04-01T18:47:41.729Z,43.20
2019-04-01T18:50:16.475Z,43.90
2019-04-01T18:52:45.715Z,44.10
2019-04-01T18:55:14.963Z,44.10
2019-04-01T18:57:45.449Z,44.20
2019-04-01T19:00:18.296Z,43.80
2019-04-01T19:02:46.738Z,44.10
2019-04-01T19:05:15.846Z,44.50
2019-04-01T19:07:47.013Z,44.30
2019-04-01T19:10:18.239Z,44.50
2019-04-01T19:12:49.503Z,44.30
2019-04-01T19:15:21.053Z,44.70
2019-04-01T19:17:50.922Z,44.90
2019-04-01T19:20:23.258Z,45.20
2019-04-01T19:22:52.542Z,45.20
2019-04-01T19:25:23.324Z,44.90
2019-04-01T19:27:53.654Z,44.70
2019-04-01T19:30:24.478Z,45.10
2019-04-01T19:32:53.650Z,45.30
2019-04-01T19:35:28.638Z,45.20
2019-04-01T19:37:58.973Z,45.60
2019-04-01T19:40:28.730Z,46.10
2019-04-01T19:42:58.956Z,46.00
2019-04-01T19:45:28.266Z,45.90
2019-04-01T19:47:57.536Z,45.80
2019-04-01T19:50:27.925Z,45.80
2019-04-01T19:52:57.276Z,45.80
2019-04-01T19:55:26.441Z,46.20
2019-04-01T19:57:59.003Z,46.00
2019-04-01T20:00:30.597Z,45.90
2019-04-01T20:03:00.238Z,46.10
2019-04-01T20:05:29.611Z,46.50
2019-04-01T20:08:00.484Z,46.30
2019-04-01T20:10:29.825Z,46.50
2019-04-01T20:12:59.156Z,46.40
2019-04-01T20:15:28.463Z,46.80
2019-04-01T20:17:59.839Z,46.90
2019-04-01T20:20:30.986Z,46.90
2019-04-01T20:23:00.346Z,46.80
2019-04-01T20:25:29.560Z,47.20
2019-04-01T20:27:58.906Z,47.40
2019-04-01T20:30:30.937Z,47.10
2019-04-01T20:33:00.229Z,47.00
2019-04-01T20:35:34.434Z,47.40
2019-04-01T20:38:03.684Z,47.70
2019-04-01T20:40:32.916Z,47.80
2019-04-01T20:43:04.843Z,47.80
2019-04-01T20:45:34.081Z,48.00
2019-04-01T20:48:04.486Z,47.60
2019-04-01T20:50:34.142Z,48.20
2019-04-01T20:53:05.078Z,48.30
2019-04-01T20:55:47.702Z,48.20
2019-04-01T20:58:07.274Z,48.40
2019-04-01T21:00:39.916Z,48.50
2019-04-01T21:03:14.883Z,49.00
2019-04-01T21:05:44.429Z,49.00
2019-04-01T21:08:16.903Z,49.30
2019-04-01T21:10:48.718Z,49.00
2019-04-01T21:13:17.879Z,49.00
2019-04-01T21:15:48.081Z,49.00
2019-04-01T21:18:17.273Z,48.70
2019-04-01T21:20:47.461Z,48.80
2019-04-01T21:23:17.213Z,49.50
2019-04-01T21:25:46.455Z,49.60
2019-04-01T21:28:15.789Z,49.60
2019-04-01T21:30:45.086Z,49.90
2019-04-01T21:33:14.433Z,49.90
2019-04-01T21:35:43.791Z,49.50
2019-04-01T21:38:15.079Z,50.10
2019-04-01T21:40:44.271Z,49.50
2019-04-01T21:43:13.438Z,49.60
2019-04-01T21:45:42.628Z,49.60
2019-04-01T21:48:11.902Z,49.50
2019-04-01T21:50:41.096Z,49.70
2019-04-01T21:53:10.314Z,49.90
2019-04-01T21:55:39.644Z,50.10
2019-04-01T21:58:08.883Z,50.10
2019-04-01T22:00:55.951Z,50.10
2019-04-01T22:03:26.730Z,49.70
2019-04-01T22:05:55.937Z,50.00
2019-04-01T22:08:26.330Z,50.20
2019-04-01T22:10:56.045Z,50.20
2019-04-01T22:13:28.330Z,49.90
2019-04-01T22:15:58.474Z,50.10
2019-04-01T22:18:32.919Z,50.50
2019-04-01T22:21:01.762Z,50.20
2019-04-01T22:23:30.952Z,50.00
2019-04-01T22:26:00.267Z,50.50
2019-04-01T22:28:29.505Z,50.80
2019-04-01T22:30:58.707Z,50.40
2019-04-01T22:33:28.063Z,50.60
2019-04-01T22:35:58.571Z,51.30
2019-04-01T22:38:27.901Z,51.50
2019-04-01T22:41:00.257Z,51.40
2019-04-01T22:43:29.893Z,51.90
2019-04-01T22:46:00.176Z,51.90
2019-04-01T22:48:29.514Z,52.30
2019-04-01T22:50:58.803Z,53.10
2019-04-01T22:53:28.008Z,52.40
2019-04-01T22:55:58.250Z,52.20
2019-04-01T22:58:27.430Z,52.50
2019-04-01T23:00:58.455Z,52.90
2019-04-01T23:03:30.555Z,52.70
2019-04-01T23:05:59.746Z,53.00
2019-04-01T23:08:28.905Z,53.30
2019-04-01T23:10:58.069Z,53.40
2019-04-01T23:13:27.247Z,53.30
2019-04-01T23:15:56.479Z,54.00
2019-04-01T23:18:25.664Z,54.30
2019-04-01T23:20:55.838Z,54.20
2019-04-01T23:23:25.048Z,54.00
2019-04-01T23:25:55.107Z,54.50
2019-04-01T23:28:24.763Z,54.70
2019-04-01T23:30:54.036Z,55.00
2019-04-01T23:33:23.201Z,55.50
2019-04-01T23:35:52.495Z,55.90
2019-04-01T23:38:21.737Z,56.10
2019-04-01T23:40:52.575Z,55.80
2019-04-01T23:43:22.742Z,55.60
2019-04-01T23:45:51.949Z,55.00
2019-04-01T23:48:21.137Z,55.00
2019-04-01T23:50:51.369Z,55.60
2019-04-01T23:53:20.642Z,56.00
2019-04-01T23:55:51.746Z,56.00
2019-04-01T23:58:22.884Z,55.80
